createdAt,value
2023-03-06T00:01:21.058Z,91.10
2023-03-06T00:06:24.034Z,91.00
2023-03-06T00:11:27.036Z,91.10
2023-03-06T00:16:30.020Z,91.10
2023-03-06T00:21:33.176Z,91.10
2023-03-06T00:26:36.690Z,91.10
2023-03-06T00:31:39.869Z,91.10
2023-03-06T00:36:42.878Z,91.00
2023-03-06T00:41:47.058Z,90.90
2023-03-06T00:46:50.202Z,91.00
2023-03-06T00:51:53.190Z,91.00
2023-03-06T00:56:56.017Z,91.10
2023-03-06T01:01:59.458Z,91.10
2023-03-06T01:07:02.896Z,91.10
2023-03-06T01:12:06.314Z,91.20
2023-03-06T01:17:09.075Z,91.20
2023-03-06T01:22:12.136Z,91.10
2023-03-06T01:27:15.107Z,91.10
2023-03-06T01:32:18.121Z,91.10
2023-03-06T01:37:21.671Z,91.00
2023-03-06T01:42:24.685Z,91.00
2023-03-06T01:47:28.282Z,91.00
2023-03-06T01:52:45.708Z,91.30
2023-03-06T01:57:54.731Z,91.00
2023-03-06T02:03:06.984Z,91.00
2023-03-06T02:08:13.320Z,91.00
2023-03-06T02:13:16.351Z,91.00
2023-03-06T02:18:19.139Z,91.00
2023-03-06T02:24:11.777Z,91.00
2023-03-06T02:29:24.209Z,91.00
2023-03-06T02:34:27.105Z,91.00
2023-03-06T02:39:34.104Z,91.00
2023-03-06T02:44:37.437Z,91.00
2023-03-06T02:49:40.452Z,91.00
2023-03-06T02:54:43.617Z,91.10
2023-03-06T02:59:46.755Z,91.10
2023-03-06T03:04:49.749Z,91.10
2023-03-06T03:09:52.801Z,91.00
2023-03-06T03:14:56.865Z,91.10
2023-03-06T03:19:59.993Z,91.10
2023-03-06T03:25:04.201Z,91.00
2023-03-06T03:30:08.674Z,91.00
2023-03-06T03:35:11.914Z,91.00
2023-03-06T03:40:16.108Z,91.00
2023-03-06T03:45:19.411Z,90.90
2023-03-06T03:50:22.814Z,90.90
2023-03-06T03:55:25.654Z,90.90
2023-03-06T04:00:28.806Z,90.90
2023-03-06T04:05:33.402Z,90.90
2023-03-06T04:10:38.581Z,90.90
2023-03-06T04:15:41.531Z,91.00
2023-03-06T04:20:48.790Z,91.10
2023-03-06T04:25:52.062Z,91.20
2023-03-06T04:30:55.065Z,91.40
2023-03-06T04:35:58.152Z,91.50
2023-03-06T04:41:01.130Z,91.70
2023-03-06T04:46:04.141Z,91.80
2023-03-06T04:51:07.071Z,92.00
2023-03-06T04:56:10.355Z,92.30
2023-03-06T05:01:13.520Z,92.50
2023-03-06T05:06:17.745Z,93.00
2023-03-06T05:11:21.041Z,93.50
2023-03-06T05:16:24.042Z,94.10
2023-03-06T05:21:27.057Z,95.30
2023-03-06T05:26:29.868Z,96.20
2023-03-06T05:31:33.020Z,96.60
2023-03-06T05:36:36.353Z,97.50
2023-03-06T05:41:40.046Z,98.50
2023-03-06T05:46:43.048Z,99.70
2023-03-06T05:51:45.956Z,99.90
2023-03-06T05:56:49.365Z,99.90
2023-03-06T06:01:52.119Z,99.90
2023-03-06T06:06:59.369Z,99.90
2023-03-06T06:12:04.104Z,99.90
2023-03-06T06:17:07.150Z,99.90
2023-03-06T06:22:10.787Z,99.90
2023-03-06T06:27:13.835Z,99.90
2023-03-06T06:32:16.871Z,99.90
2023-03-06T06:37:19.907Z,99.90
2023-03-06T06:42:36.911Z,99.90
2023-03-06T06:47:42.613Z,99.90
2023-03-06T06:52:45.558Z,99.90
2023-03-06T06:57:48.468Z,99.90
2023-03-06T07:02:51.585Z,99.90
2023-03-06T07:07:54.624Z,99.90
2023-03-06T07:12:57.686Z,99.90
2023-03-06T07:18:01.398Z,99.90
2023-03-06T07:23:08.435Z,99.90
2023-03-06T07:28:11.514Z,99.90
2023-03-06T07:33:14.873Z,99.90
2023-03-06T07:38:17.889Z,99.90
2023-03-06T07:43:21.367Z,99.90
2023-03-06T07:48:24.467Z,99.90
2023-03-06T07:53:28.516Z,99.90
2023-03-06T07:58:31.539Z,99.90
2023-03-06T08:03:35.047Z,99.90
2023-03-06T08:08:40.342Z,99.90
2023-03-06T08:13:44.111Z,99.90
2023-03-06T08:18:47.108Z,99.90
2023-03-06T08:23:50.861Z,99.90
2023-03-06T08:28:57.373Z,99.90
2023-03-06T08:34:05.934Z,99.90
2023-03-06T08:39:09.418Z,99.90
2023-03-06T08:44:13.016Z,99.90
2023-03-06T08:49:16.073Z,99.90
2023-03-06T08:54:18.955Z,99.90
2023-03-06T08:59:21.857Z,99.90
2023-03-06T09:04:24.904Z,99.90
2023-03-06T09:09:27.990Z,99.90
2023-03-06T09:14:32.156Z,99.90
2023-03-06T09:19:35.147Z,99.90
2023-03-06T09:24:38.089Z,99.90
2023-03-06T09:29:41.058Z,99.90
2023-03-06T09:34:43.761Z,99.90
2023-03-06T09:39:46.686Z,99.90
2023-03-06T09:45:13.115Z,99.90
2023-03-06T09:50:58.779Z,99.90
2023-03-06T09:56:11.147Z,99.90
2023-03-06T10:01:29.675Z,99.90
2023-03-06T10:06:58.538Z,99.90
2023-03-06T10:12:12.201Z,99.90
2023-03-06T10:17:21.557Z,99.90
2023-03-06T10:22:48.033Z,99.90
2023-03-06T10:28:23.469Z,99.90
2023-03-06T10:33:47.755Z,99.90
2023-03-06T10:38:50.829Z,99.90
2023-03-06T10:43:59.890Z,99.90
2023-03-06T10:49:24.815Z,99.90
2023-03-06T10:54:35.148Z,99.90
2023-03-06T11:00:02.526Z,99.90
2023-03-06T11:05:26.981Z,99.90
2023-03-06T11:10:32.144Z,99.40
2023-03-06T11:15:35.546Z,99.10
2023-03-06T11:20:52.994Z,99.10
2023-03-06T11:26:05.119Z,98.80
2023-03-06T11:31:21.133Z,99.00
2023-03-06T11:37:03.741Z,98.90
2023-03-06T11:42:28.855Z,98.70
2023-03-06T11:47:44.154Z,98.90
2023-03-06T11:53:10.817Z,98.90
2023-03-06T11:58:47.875Z,99.20
2023-03-06T12:04:03.677Z,99.30
2023-03-06T12:09:12.548Z,99.10
2023-03-06T12:14:57.492Z,99.30
2023-03-06T12:20:28.030Z,99.20
2023-03-06T12:25:39.481Z,99.00
2023-03-06T12:31:37.018Z,99.00
2023-03-06T12:37:04.011Z,99.00
2023-03-06T12:42:17.828Z,99.00
2023-03-06T12:47:29.056Z,99.10
2023-03-06T12:52:34.219Z,99.50
2023-03-06T12:57:37.172Z,99.80
2023-03-06T13:03:39.331Z,99.90
2023-03-06T13:09:04.801Z,99.90
2023-03-06T13:14:34.316Z,99.90
2023-03-06T13:19:38.857Z,99.90
2023-03-06T13:24:44.007Z,99.90
2023-03-06T13:29:52.016Z,99.90
2023-03-06T13:34:55.236Z,99.90
2023-03-06T13:40:01.571Z,99.90
2023-03-06T13:45:17.769Z,99.90
2023-03-06T13:50:48.827Z,99.70
2023-03-06T13:56:07.038Z,99.80
2023-03-06T14:01:30.807Z,99.70
2023-03-06T14:06:37.473Z,99.50
2023-03-06T14:11:50.351Z,99.50
2023-03-06T14:16:53.737Z,99.50
2023-03-06T14:21:58.038Z,99.70
2023-03-06T14:27:01.356Z,99.80
2023-03-06T14:32:09.944Z,99.80
2023-03-06T14:37:25.164Z,99.80
2023-03-06T14:42:29.717Z,99.90
2023-03-06T14:47:36.258Z,99.90
2023-03-06T14:52:39.233Z,99.90
2023-03-06T14:57:42.705Z,99.90
2023-03-06T15:02:47.593Z,99.90
2023-03-06T15:07:52.894Z,99.90
2023-03-06T15:12:57.658Z,99.90
2023-03-06T15:18:00.713Z,99.90
2023-03-06T15:23:04.116Z,99.90
2023-03-06T15:28:34.628Z,99.90
2023-03-06T15:33:38.132Z,99.90
2023-03-06T15:38:45.747Z,99.90
2023-03-06T15:43:48.781Z,99.90
2023-03-06T15:49:04.283Z,99.90
2023-03-06T15:54:12.263Z,99.90
2023-03-06T15:59:24.138Z,99.90
2023-03-06T16:04:27.146Z,99.90
2023-03-06T16:09:30.075Z,99.90
2023-03-06T16:14:33.199Z,99.90
2023-03-06T16:19:36.248Z,99.90
2023-03-06T16:24:39.195Z,99.90
2023-03-06T16:29:42.099Z,99.90
2023-03-06T16:34:45.073Z,99.90
2023-03-06T16:39:48.195Z,99.90
2023-03-06T16:44:51.303Z,99.90
2023-03-06T16:49:58.041Z,99.90
2023-03-06T16:55:01.301Z,99.90
2023-03-06T17:00:06.810Z,99.90
2023-03-06T17:05:12.077Z,99.90
2023-03-06T17:10:17.129Z,99.90
2023-03-06T17:15:20.397Z,99.90
2023-03-06T17:20:23.906Z,99.90
2023-03-06T17:25:26.715Z,99.90
2023-03-06T17:30:30.529Z,99.90
2023-03-06T17:35:37.343Z,99.90
2023-03-06T17:40:40.344Z,99.90
2023-03-06T17:45:43.168Z,99.90
2023-03-06T17:50:54.471Z,99.90
2023-03-06T17:55:59.486Z,99.90
2023-03-06T18:01:17.920Z,99.90
2023-03-06T18:06:22.224Z,99.90
2023-03-06T18:11:25.325Z,99.90
2023-03-06T18:16:28.416Z,99.90
2023-03-06T18:21:31.531Z,99.90
2023-03-06T18:26:34.978Z,99.90
2023-03-06T18:31:41.087Z,99.90
2023-03-06T18:36:47.270Z,99.90
2023-03-06T18:41:50.398Z,99.90
2023-03-06T18:46:53.328Z,99.90
2023-03-06T18:51:56.483Z,99.90
2023-03-06T18:56:59.514Z,99.90
2023-03-06T19:02:02.407Z,99.90
2023-03-06T19:07:06.640Z,99.90
2023-03-06T19:12:09.858Z,99.90
2023-03-06T19:17:13.214Z,99.90
2023-03-06T19:22:16.136Z,99.90
2023-03-06T19:27:19.124Z,99.90
2023-03-06T19:32:23.256Z,99.90
2023-03-06T19:37:26.660Z,99.90
2023-03-06T19:42:31.341Z,99.90
2023-03-06T19:47:35.147Z,99.90
2023-03-06T19:52:39.263Z,99.90
2023-03-06T19:57:43.496Z,99.90
2023-03-06T20:02:46.678Z,99.90
2023-03-06T20:07:50.049Z,99.90
2023-03-06T20:12:53.140Z,99.90
2023-03-06T20:17:56.869Z,99.90
2023-03-06T20:23:04.544Z,99.90
2023-03-06T20:28:07.557Z,99.90
2023-03-06T20:33:10.586Z,99.90
2023-03-06T20:38:13.790Z,99.90
2023-03-06T20:43:16.668Z,99.90
2023-03-06T20:48:19.763Z,99.90
2023-03-06T20:53:22.744Z,99.90
2023-03-06T20:58:28.623Z,99.90
2023-03-06T21:03:31.558Z,99.90
2023-03-06T21:08:34.372Z,99.90
2023-03-06T21:13:37.488Z,99.90
2023-03-06T21:18:40.857Z,99.90
2023-03-06T21:23:44.586Z,99.90
2023-03-06T21:28:47.988Z,99.90
2023-03-06T21:33:52.001Z,99.90
2023-03-06T21:38:55.360Z,99.90
2023-03-06T21:44:01.692Z,99.90
2023-03-06T21:49:05.825Z,99.90
2023-03-06T21:54:09.725Z,99.90
2023-03-06T21:59:13.831Z,99.90
2023-03-06T22:04:16.989Z,99.90
2023-03-06T22:09:20.193Z,99.90
2023-03-06T22:14:23.236Z,99.90
2023-03-06T22:19:27.059Z,99.90
2023-03-06T22:24:31.982Z,99.90
2023-03-06T22:29:35.018Z,99.90
2023-03-06T22:34:38.172Z,99.90
2023-03-06T22:39:41.044Z,99.90
2023-03-06T22:44:44.107Z,99.90
2023-03-06T22:49:46.972Z,99.90
2023-03-06T22:54:49.918Z,99.90
2023-03-06T22:59:52.848Z,99.90
2023-03-06T23:04:55.867Z,99.90
2023-03-06T23:09:58.758Z,99.90
2023-03-06T23:15:01.864Z,99.90
2023-03-06T23:20:06.389Z,99.90
2023-03-06T23:25:09.612Z,99.90
2023-03-06T23:30:13.487Z,99.90
2023-03-06T23:35:16.516Z,99.90
2023-03-06T23:40:19.654Z,99.90
2023-03-06T23:45:23.110Z,99.90
2023-03-06T23:50:26.645Z,99.90
2023-03-06T23:55:29.669Z,99.90
